createdAt,value
2019-05-15T00:00:09.381Z,71.99
2019-05-15T00:01:09.169Z,72.41
2019-05-15T00:02:10.852Z,72.33
2019-05-15T00:03:09.145Z,71.61
2019-05-15T00:04:09.430Z,72.64
2019-05-15T00:05:09.269Z,72.33
2019-05-15T00:06:09.111Z,73.05
2019-05-15T00:07:09.099Z,72.75
2019-05-15T00:08:09.627Z,73.26
2019-05-15T00:09:09.085Z,73.16
2019-05-15T00:10:09.166Z,73.57
2019-05-15T00:11:09.081Z,73.47
2019-05-15T00:12:09.050Z,72.54
2019-05-15T00:13:09.508Z,72.33
2019-05-15T00:14:09.028Z,72.96
2019-05-15T00:15:09.574Z,72.58
2019-05-15T00:16:09.028Z,73.05
2019-05-15T00:17:08.996Z,73.60
2019-05-15T00:18:09.009Z,73.16
2019-05-15T00:19:08.987Z,72.88
2019-05-15T00:20:09.926Z,73.30
2019-05-15T00:21:09.485Z,73.40
2019-05-15T00:22:08.945Z,72.67
2019-05-15T00:23:08.937Z,73.36
2019-05-15T00:24:13.064Z,73.40
2019-05-15T00:25:09.469Z,72.88
2019-05-15T00:26:09.425Z,73.40
2019-05-15T00:27:08.894Z,72.88
2019-05-15T00:28:09.682Z,73.19
2019-05-15T00:29:15.649Z,73.30
2019-05-15T00:30:09.861Z,72.78
2019-05-15T00:31:09.229Z,72.27
2019-05-15T00:32:09.228Z,72.37
2019-05-15T00:33:09.346Z,72.27
2019-05-15T00:34:12.804Z,72.37
2019-05-15T00:35:09.577Z,72.37
2019-05-15T00:36:08.925Z,72.47
2019-05-15T00:37:09.111Z,72.16
2019-05-15T00:38:09.465Z,72.37
2019-05-15T00:39:08.768Z,72.78
2019-05-15T00:40:09.132Z,72.92
2019-05-15T00:41:09.496Z,73.12
2019-05-15T00:42:08.758Z,73.64
2019-05-15T00:43:09.059Z,73.64
2019-05-15T00:44:09.333Z,73.54
2019-05-15T00:45:09.372Z,74.36
2019-05-15T00:46:09.371Z,73.74
2019-05-15T00:47:10.436Z,74.36
2019-05-15T00:48:09.077Z,74.67
2019-05-15T00:49:08.846Z,74.40
2019-05-15T00:50:08.978Z,73.74
2019-05-15T00:51:08.641Z,74.15
2019-05-15T00:52:12.104Z,74.40
2019-05-15T00:53:08.827Z,75.12
2019-05-15T00:54:08.614Z,73.88
2019-05-15T00:55:08.968Z,74.71
2019-05-15T00:56:09.038Z,74.60
2019-05-15T00:57:08.682Z,74.50
2019-05-15T00:58:08.920Z,74.29
2019-05-15T00:59:08.560Z,74.08
2019-05-15T01:00:08.545Z,74.60
2019-05-15T01:01:08.542Z,74.50
2019-05-15T01:02:08.817Z,75.01
2019-05-15T01:03:08.924Z,74.29
2019-05-15T01:04:08.510Z,74.40
2019-05-15T01:05:08.551Z,74.63
2019-05-15T01:06:08.606Z,75.15
2019-05-15T01:07:08.515Z,74.60
2019-05-15T01:08:08.492Z,73.98
2019-05-15T01:09:08.535Z,73.81
2019-05-15T01:10:09.845Z,74.63
2019-05-15T01:11:09.132Z,73.91
2019-05-15T01:12:09.042Z,74.02
2019-05-15T01:13:08.715Z,74.74
2019-05-15T01:14:12.127Z,74.84
2019-05-15T01:15:09.191Z,74.43
2019-05-15T01:16:09.138Z,74.74
2019-05-15T01:17:09.132Z,74.53
2019-05-15T01:18:09.329Z,74.84
2019-05-15T01:19:09.241Z,74.33
2019-05-15T01:20:08.666Z,74.33
2019-05-15T01:21:08.584Z,75.15
2019-05-15T01:22:08.838Z,74.77
2019-05-15T01:23:09.059Z,74.63
2019-05-15T01:24:08.515Z,74.88
2019-05-15T01:25:08.786Z,74.98
2019-05-15T01:26:08.501Z,75.60
2019-05-15T01:27:09.128Z,75.09
2019-05-15T01:28:09.334Z,74.57
2019-05-15T01:29:09.103Z,74.57
2019-05-15T01:30:08.957Z,75.09
2019-05-15T01:31:08.693Z,75.70
2019-05-15T01:32:08.530Z,75.49
2019-05-15T01:33:08.478Z,75.81
2019-05-15T01:34:08.989Z,76.32
2019-05-15T01:35:09.488Z,75.84
2019-05-15T01:36:08.614Z,75.70
2019-05-15T01:37:08.630Z,75.74
2019-05-15T01:38:08.456Z,76.26
2019-05-15T01:39:08.156Z,76.56
2019-05-15T01:40:08.775Z,76.53
2019-05-15T01:41:09.751Z,76.87
2019-05-15T01:42:08.423Z,77.19
2019-05-15T01:43:09.078Z,77.08
2019-05-15T01:44:08.785Z,76.98
2019-05-15T01:45:08.674Z,76.15
2019-05-15T01:46:08.558Z,75.84
2019-05-15T01:47:08.550Z,75.74
2019-05-15T01:48:08.265Z,75.84
2019-05-15T01:49:08.118Z,76.70
2019-05-15T01:50:09.336Z,76.36
2019-05-15T01:51:09.288Z,75.95
2019-05-15T01:52:08.118Z,76.15
2019-05-15T01:53:08.415Z,76.36
2019-05-15T01:54:09.158Z,76.36
2019-05-15T01:55:09.172Z,77.12
2019-05-15T01:56:08.580Z,76.46
2019-05-15T01:57:09.274Z,76.15
2019-05-15T01:58:09.040Z,75.74
2019-05-15T01:59:08.669Z,76.26
2019-05-15T02:00:08.697Z,76.15
2019-05-15T02:01:08.313Z,75.63
2019-05-15T02:02:09.631Z,75.84
2019-05-15T02:03:09.790Z,76.15
2019-05-15T02:04:08.347Z,75.78
2019-05-15T02:05:08.718Z,76.46
2019-05-15T02:06:15.410Z,77.19
2019-05-15T02:07:08.328Z,75.95
2019-05-15T02:08:08.317Z,76.60
2019-05-15T02:09:08.400Z,76.91
2019-05-15T02:10:09.175Z,76.05
2019-05-15T02:11:09.208Z,76.18
2019-05-15T02:12:08.699Z,77.33
2019-05-15T02:13:08.595Z,76.50
2019-05-15T02:14:08.355Z,76.81
2019-05-15T02:15:08.533Z,77.33
2019-05-15T02:16:08.385Z,76.50
2019-05-15T02:17:08.484Z,75.78
2019-05-15T02:18:08.382Z,75.98
2019-05-15T02:19:08.967Z,76.60
2019-05-15T02:20:08.674Z,76.91
2019-05-15T02:21:10.244Z,75.78
2019-05-15T02:22:08.383Z,75.78
2019-05-15T02:23:11.586Z,76.09
2019-05-15T02:24:08.023Z,77.12
2019-05-15T02:25:08.609Z,75.98
2019-05-15T02:26:08.068Z,76.18
2019-05-15T02:27:08.999Z,76.50
2019-05-15T02:28:09.437Z,77.12
2019-05-15T02:29:08.350Z,77.98
2019-05-15T02:30:18.284Z,77.53
2019-05-15T02:31:10.387Z,77.47
2019-05-15T02:32:10.220Z,77.87
2019-05-15T02:33:10.703Z,77.36
2019-05-15T02:34:10.111Z,77.67
2019-05-15T02:35:10.057Z,77.87
2019-05-15T02:36:09.751Z,77.36
2019-05-15T02:37:08.935Z,77.98
2019-05-15T02:38:10.114Z,77.47
2019-05-15T02:39:08.981Z,77.87
2019-05-15T02:40:09.869Z,77.50
2019-05-15T02:41:09.914Z,77.70
2019-05-15T02:42:09.928Z,77.70
2019-05-15T02:43:10.048Z,77.50
2019-05-15T02:44:10.642Z,78.12
2019-05-15T02:45:09.956Z,77.81
2019-05-15T02:46:10.109Z,77.91
2019-05-15T02:47:09.230Z,77.60
2019-05-15T02:48:08.937Z,77.60
2019-05-15T02:49:08.772Z,77.74
2019-05-15T02:50:10.717Z,78.16
2019-05-15T02:51:09.700Z,78.02
2019-05-15T02:52:09.743Z,78.33
2019-05-15T02:53:09.787Z,78.78
2019-05-15T02:54:10.296Z,77.64
2019-05-15T02:55:09.406Z,77.64
2019-05-15T02:56:09.292Z,78.16
2019-05-15T02:57:09.846Z,79.19
2019-05-15T02:58:10.015Z,78.64
2019-05-15T02:59:09.218Z,77.95
2019-05-15T03:00:10.690Z,78.05
2019-05-15T03:01:09.279Z,77.64
2019-05-15T03:02:10.077Z,77.91
2019-05-15T03:03:09.493Z,77.64
2019-05-15T03:04:09.284Z,77.43
2019-05-15T03:05:09.319Z,77.43
2019-05-15T03:06:10.001Z,77.95
2019-05-15T03:07:09.676Z,77.53
2019-05-15T03:08:09.522Z,77.95
2019-05-15T03:09:09.460Z,77.74
2019-05-15T03:10:09.414Z,77.47
2019-05-15T03:11:09.774Z,77.12
2019-05-15T03:12:09.103Z,77.84
2019-05-15T03:13:09.689Z,78.57
2019-05-15T03:14:09.239Z,78.67
2019-05-15T03:15:09.642Z,77.98
2019-05-15T03:16:09.998Z,77.98
2019-05-15T03:17:09.809Z,78.40
2019-05-15T03:18:09.571Z,77.98
2019-05-15T03:19:09.996Z,77.57
2019-05-15T03:20:10.421Z,77.36
2019-05-15T03:21:09.638Z,77.15
2019-05-15T03:22:09.748Z,77.05
2019-05-15T03:23:09.640Z,77.26
2019-05-15T03:24:09.827Z,77.47
2019-05-15T03:25:10.518Z,77.98
2019-05-15T03:26:08.883Z,77.67
2019-05-15T03:27:09.159Z,77.78
2019-05-15T03:28:10.107Z,77.78
2019-05-15T03:29:09.772Z,78.19
2019-05-15T03:30:12.251Z,78.30
2019-05-15T03:31:26.595Z,78.02
2019-05-15T03:32:22.926Z,79.02
2019-05-15T03:33:15.776Z,79.06
2019-05-15T03:34:19.256Z,79.27
2019-05-15T03:35:13.763Z,78.02
2019-05-15T03:36:13.330Z,78.12
2019-05-15T03:37:12.301Z,77.71
2019-05-15T03:38:09.237Z,78.33
2019-05-15T03:39:09.544Z,78.44
2019-05-15T03:40:09.843Z,78.85
2019-05-15T03:41:09.888Z,79.41
2019-05-15T03:42:09.633Z,78.96
2019-05-15T03:43:09.167Z,79.27
2019-05-15T03:44:09.521Z,79.47
2019-05-15T03:45:09.653Z,79.58
2019-05-15T03:46:09.053Z,79.16
2019-05-15T03:47:09.272Z,78.64
2019-05-15T03:48:09.366Z,79.68
2019-05-15T03:49:08.627Z,79.16
2019-05-15T03:50:09.008Z,78.75
2019-05-15T03:51:09.188Z,78.54
2019-05-15T03:52:09.772Z,78.54
2019-05-15T03:53:09.807Z,78.75
2019-05-15T03:54:09.303Z,79.61
2019-05-15T03:55:10.115Z,79.92
2019-05-15T03:56:09.734Z,81.06
2019-05-15T03:57:09.571Z,81.27
2019-05-15T03:58:09.876Z,81.06
2019-05-15T03:59:09.375Z,81.10
2019-05-15T04:00:09.338Z,80.89
2019-05-15T04:01:27.875Z,80.47
2019-05-15T04:02:08.667Z,79.92
2019-05-15T04:03:10.262Z,80.33
2019-05-15T04:04:09.440Z,80.33
2019-05-15T04:05:06.603Z,80.37
2019-05-15T04:06:09.689Z,80.23
2019-05-15T04:07:09.229Z,80.16
2019-05-15T04:08:10.381Z,79.71
2019-05-15T04:09:09.331Z,79.96
2019-05-15T04:10:09.552Z,80.16
2019-05-15T04:11:09.117Z,79.55
2019-05-15T04:12:09.331Z,80.37
2019-05-15T04:13:09.369Z,79.75
2019-05-15T04:14:09.897Z,79.82
2019-05-15T04:15:09.793Z,79.34
2019-05-15T04:16:09.993Z,80.02
2019-05-15T04:17:09.073Z,79.61
2019-05-15T04:18:09.271Z,79.61
2019-05-15T04:19:09.412Z,79.61
2019-05-15T04:20:09.606Z,79.82
2019-05-15T04:21:09.033Z,79.20
2019-05-15T04:22:09.222Z,79.41
2019-05-15T04:23:09.770Z,79.41
2019-05-15T04:24:09.273Z,80.23
2019-05-15T04:25:09.390Z,79.65
2019-05-15T04:26:09.189Z,79.65
2019-05-15T04:27:10.482Z,79.51
2019-05-15T04:28:09.393Z,79.51
2019-05-15T04:29:09.501Z,79.10
2019-05-15T04:30:10.556Z,79.71
2019-05-15T04:31:09.254Z,80.75
2019-05-15T04:32:07.203Z,81.58
2019-05-15T04:33:09.085Z,81.37
2019-05-15T04:34:08.941Z,80.65
2019-05-15T04:35:09.190Z,80.44
2019-05-15T04:36:09.484Z,80.02
2019-05-15T04:37:09.196Z,80.33
2019-05-15T04:38:09.059Z,80.33
2019-05-15T04:39:09.553Z,80.33
2019-05-15T04:40:09.245Z,81.89
2019-05-15T04:41:09.452Z,82.10
2019-05-15T04:42:08.208Z,81.68
2019-05-15T04:43:06.184Z,81.06
2019-05-15T04:44:06.195Z,81.37
2019-05-15T04:45:09.657Z,81.48
2019-05-15T04:46:09.519Z,82.20
2019-05-15T04:47:09.442Z,82.10
2019-05-15T04:48:09.528Z,81.68
2019-05-15T04:49:09.112Z,82.10
2019-05-15T04:50:08.810Z,83.45
2019-05-15T04:51:09.455Z,83.86
2019-05-15T04:52:06.079Z,83.45
2019-05-15T04:53:06.085Z,83.86
2019-05-15T04:54:09.290Z,85.00
2019-05-15T04:55:09.687Z,84.28
2019-05-15T04:56:09.203Z,84.17
2019-05-15T04:57:09.000Z,84.11
2019-05-15T04:58:06.024Z,83.76
2019-05-15T04:59:06.022Z,83.34
2019-05-15T05:00:09.203Z,82.97
2019-05-15T05:01:09.148Z,82.93
2019-05-15T05:02:24.195Z,82.62
2019-05-15T05:03:09.861Z,82.41
2019-05-15T05:04:05.952Z,81.99
2019-05-15T05:05:05.953Z,81.79
2019-05-15T05:06:05.933Z,81.27
2019-05-15T05:07:05.915Z,81.54
2019-05-15T05:08:09.089Z,81.96
2019-05-15T05:09:08.935Z,82.48
2019-05-15T05:10:09.169Z,83.03
2019-05-15T05:11:05.877Z,82.58
2019-05-15T05:12:08.406Z,82.17
2019-05-15T05:13:08.778Z,83.10
2019-05-15T05:14:08.282Z,84.03
2019-05-15T05:15:08.254Z,84.13
2019-05-15T05:16:05.845Z,83.62
2019-05-15T05:17:08.811Z,85.17
2019-05-15T05:18:05.825Z,85.27
2019-05-15T05:19:08.726Z,83.93
2019-05-15T05:20:08.059Z,84.34
2019-05-15T05:21:07.738Z,83.99
2019-05-15T05:22:07.732Z,84.13
2019-05-15T05:23:08.406Z,83.89
2019-05-15T05:24:07.841Z,83.68
2019-05-15T05:25:07.843Z,84.09
2019-05-15T05:26:08.818Z,84.51
2019-05-15T05:27:08.762Z,85.24
2019-05-15T05:28:05.715Z,84.82
2019-05-15T05:29:05.682Z,85.24
2019-05-15T05:30:08.159Z,86.17
2019-05-15T05:31:08.158Z,86.44
2019-05-15T05:32:05.652Z,86.23
2019-05-15T05:33:05.640Z,86.13
2019-05-15T05:34:05.642Z,85.61
2019-05-15T05:35:08.200Z,85.09
2019-05-15T05:36:07.706Z,83.75
2019-05-15T05:37:07.710Z,85.09
2019-05-15T05:38:07.747Z,83.91
2019-05-15T05:39:05.608Z,83.61
2019-05-15T05:40:07.885Z,83.29
2019-05-15T05:41:07.958Z,83.91
2019-05-15T05:42:07.783Z,82.46
2019-05-15T05:43:05.555Z,85.05
2019-05-15T05:44:05.519Z,83.91
2019-05-15T05:45:05.652Z,82.32
2019-05-15T05:46:05.497Z,81.49
2019-05-15T05:47:05.560Z,80.98
2019-05-15T05:48:05.530Z,79.74
2019-05-15T05:49:07.971Z,79.84
2019-05-15T05:50:07.779Z,80.57
2019-05-15T05:51:05.462Z,79.74
2019-05-15T05:52:05.438Z,79.29
2019-05-15T05:53:05.422Z,79.80
2019-05-15T05:54:05.433Z,76.18
2019-05-15T05:55:05.415Z,74.22
2019-05-15T05:56:05.412Z,75.63
2019-05-15T05:57:05.393Z,75.81
2019-05-15T05:58:08.035Z,75.70
2019-05-15T05:59:05.385Z,78.18
2019-05-15T06:00:05.348Z,73.85
2019-05-15T06:01:05.366Z,76.90
2019-05-15T06:02:08.025Z,79.35
2019-05-15T06:03:08.493Z,79.52
2019-05-15T06:04:05.305Z,79.62
2019-05-15T06:05:07.775Z,78.45
2019-05-15T06:06:05.334Z,72.67
2019-05-15T06:07:10.033Z,74.80
2019-05-15T06:08:08.051Z,74.08
2019-05-15T06:09:05.255Z,72.13
2019-05-15T06:10:05.249Z,69.93
2019-05-15T06:11:05.253Z,71.99
2019-05-15T06:12:05.220Z,73.91
2019-05-15T06:13:08.497Z,74.80
2019-05-15T06:14:05.216Z,75.73
2019-05-15T06:15:05.190Z,75.18
2019-05-15T06:16:05.200Z,69.70
2019-05-15T06:17:05.187Z,70.73
2019-05-15T06:18:05.158Z,68.37
2019-05-15T06:19:05.154Z,68.46
2019-05-15T06:20:05.138Z,72.65
2019-05-15T06:21:05.183Z,72.75
2019-05-15T06:22:05.137Z,72.00
2019-05-15T06:23:05.120Z,69.64
2019-05-15T06:24:05.994Z,68.30
2019-05-15T06:25:05.306Z,69.50
2019-05-15T06:26:05.115Z,68.99
2019-05-15T06:27:05.067Z,68.37
2019-05-15T06:28:05.064Z,66.70
2019-05-15T06:29:05.043Z,66.80
2019-05-15T06:30:05.030Z,63.72
2019-05-15T06:31:05.067Z,66.19
2019-05-15T06:32:05.023Z,66.67
2019-05-15T06:33:10.653Z,66.63
2019-05-15T06:34:08.162Z,63.56
2019-05-15T06:35:04.989Z,61.92
2019-05-15T06:36:04.995Z,61.48
2019-05-15T06:37:05.005Z,63.87
2019-05-15T06:38:04.961Z,63.12
2019-05-15T06:39:04.938Z,65.68
2019-05-15T06:40:04.931Z,61.25
2019-05-15T06:41:04.914Z,61.04
2019-05-15T06:42:04.925Z,63.91
2019-05-15T06:43:04.897Z,63.70
2019-05-15T06:44:04.906Z,63.26
2019-05-15T06:45:04.873Z,60.06
2019-05-15T06:46:04.867Z,61.09
2019-05-15T06:47:04.872Z,60.78
2019-05-15T06:48:04.860Z,61.91
2019-05-15T06:49:04.836Z,59.86
2019-05-15T06:50:04.829Z,62.11
2019-05-15T06:51:04.807Z,61.09
2019-05-15T06:52:04.819Z,63.41
2019-05-15T06:53:07.649Z,64.84
2019-05-15T06:54:05.782Z,65.66
2019-05-15T06:55:04.774Z,64.40
2019-05-15T06:56:04.786Z,64.20
2019-05-15T06:57:04.785Z,64.20
2019-05-15T06:58:04.734Z,64.48
2019-05-15T06:59:04.730Z,63.66
2019-05-15T07:00:04.717Z,62.43
2019-05-15T07:01:04.716Z,62.13
2019-05-15T07:02:04.691Z,60.57
2019-05-15T07:03:16.767Z,60.46
2019-05-15T07:04:05.671Z,60.57
2019-05-15T07:05:04.660Z,60.16
2019-05-15T07:06:04.667Z,57.37
2019-05-15T07:07:04.643Z,60.74
2019-05-15T07:08:04.648Z,62.27
2019-05-15T07:09:04.619Z,63.06
2019-05-15T07:10:04.622Z,60.92
2019-05-15T07:11:04.594Z,59.39
2019-05-15T07:12:04.588Z,56.10
2019-05-15T07:13:04.619Z,57.12
2019-05-15T07:14:04.578Z,58.14
2019-05-15T07:15:04.583Z,55.89
2019-05-15T07:16:04.542Z,51.38
2019-05-15T07:17:04.532Z,53.42
2019-05-15T07:18:04.529Z,54.03
2019-05-15T07:19:04.530Z,55.26
2019-05-15T07:20:04.542Z,47.20
2019-05-15T07:21:04.493Z,50.23
2019-05-15T07:22:04.479Z,49.11
2019-05-15T07:23:04.471Z,48.27
2019-05-15T07:24:04.481Z,51.05
2019-05-15T07:25:04.569Z,49.19
2019-05-15T07:26:04.451Z,52.55
2019-05-15T07:27:04.427Z,52.35
2019-05-15T07:28:04.415Z,49.29
2019-05-15T07:29:04.430Z,51.23
2019-05-15T07:30:04.418Z,46.95
2019-05-15T07:31:04.385Z,50.80
2019-05-15T07:32:04.383Z,47.24
2019-05-15T07:33:04.362Z,49.78
2019-05-15T07:34:04.383Z,44.89
2019-05-15T07:35:04.342Z,46.83
2019-05-15T07:36:04.335Z,49.07
2019-05-15T07:37:04.342Z,48.94
2019-05-15T07:38:04.310Z,47.95
2019-05-15T07:39:04.342Z,44.26
2019-05-15T07:40:04.290Z,45.38
2019-05-15T07:41:04.693Z,46.50
2019-05-15T07:42:04.266Z,42.33
2019-05-15T07:43:04.267Z,45.07
2019-05-15T07:44:04.259Z,44.54
2019-05-15T07:45:04.258Z,45.26
2019-05-15T07:46:04.227Z,43.12
2019-05-15T07:47:04.217Z,39.76
2019-05-15T07:48:04.204Z,43.41
2019-05-15T07:49:04.204Z,46.36
2019-05-15T07:50:04.219Z,44.12
2019-05-15T07:51:04.172Z,40.97
2019-05-15T07:52:04.162Z,41.38
2019-05-15T07:53:04.154Z,42.80
2019-05-15T07:54:04.141Z,40.05
2019-05-15T07:55:04.170Z,41.78
2019-05-15T07:56:04.143Z,45.95
2019-05-15T07:57:04.111Z,44.10
2019-05-15T07:58:04.108Z,45.72
2019-05-15T07:59:04.093Z,44.81
2019-05-15T08:00:04.080Z,44.71
2019-05-15T08:01:05.509Z,42.37
2019-05-15T08:02:04.055Z,44.81
2019-05-15T08:03:04.047Z,42.07
2019-05-15T08:04:22.709Z,43.69
2019-05-15T08:05:11.572Z,43.99
2019-05-15T08:06:04.038Z,45.11
2019-05-15T08:07:11.565Z,40.23
2019-05-15T08:08:04.029Z,42.37
2019-05-15T08:09:03.991Z,41.15
2019-05-15T08:10:03.977Z,42.66
2019-05-15T08:11:17.480Z,40.52
2019-05-15T08:12:04.950Z,42.35
2019-05-15T08:13:11.495Z,41.44
2019-05-15T08:14:03.936Z,42.35
2019-05-15T08:15:03.923Z,42.45
2019-05-15T08:16:03.953Z,42.35
2019-05-15T08:17:03.907Z,40.00
2019-05-15T08:18:09.191Z,42.02
2019-05-15T08:19:04.885Z,41.72
2019-05-15T08:20:03.869Z,41.31
2019-05-15T08:21:03.857Z,40.09
2019-05-15T08:22:03.874Z,39.28
2019-05-15T08:23:03.893Z,38.68
2019-05-15T08:24:03.829Z,39.26
2019-05-15T08:25:06.752Z,37.95
2019-05-15T08:26:03.807Z,39.06
2019-05-15T08:27:03.820Z,39.37
2019-05-15T08:28:03.784Z,39.15
2019-05-15T08:29:03.780Z,38.13
2019-05-15T08:30:03.768Z,41.28
2019-05-15T08:31:06.545Z,43.00
2019-05-15T08:32:04.786Z,38.84
2019-05-15T08:33:03.773Z,38.23
2019-05-15T08:34:13.564Z,36.41
2019-05-15T08:35:04.710Z,33.97
2019-05-15T08:36:03.698Z,34.89
2019-05-15T08:37:03.706Z,35.11
2019-05-15T08:38:03.681Z,34.80
2019-05-15T08:39:03.665Z,34.91
2019-05-15T08:40:03.673Z,36.53
2019-05-15T08:41:03.645Z,35.92
2019-05-15T08:42:03.657Z,37.12
2019-05-15T08:43:03.634Z,34.99
2019-05-15T08:44:03.623Z,36.41
2019-05-15T08:45:03.603Z,36.00
2019-05-15T08:46:03.601Z,37.61
2019-05-15T08:47:03.583Z,39.23
2019-05-15T08:48:03.594Z,34.97
2019-05-15T08:49:03.612Z,32.34
2019-05-15T08:50:03.551Z,35.38
2019-05-15T08:51:03.558Z,33.45
2019-05-15T08:52:03.565Z,33.35
2019-05-15T08:53:03.572Z,32.34
2019-05-15T08:54:03.544Z,32.15
2019-05-15T08:55:03.500Z,37.91
2019-05-15T08:56:03.496Z,35.07
2019-05-15T08:57:03.485Z,33.23
2019-05-15T08:58:08.461Z,33.54
2019-05-15T08:59:04.458Z,36.78
2019-05-15T09:00:03.469Z,35.55
2019-05-15T09:01:03.456Z,38.77
2019-05-15T09:02:03.430Z,38.06
2019-05-15T09:03:03.408Z,34.72
2019-05-15T09:04:03.414Z,38.45
2019-05-15T09:05:03.389Z,34.40
2019-05-15T09:06:03.381Z,31.77
2019-05-15T09:07:03.371Z,32.28
2019-05-15T09:08:03.366Z,33.10
2019-05-15T09:09:03.384Z,33.71
2019-05-15T09:10:03.376Z,36.04
2019-05-15T09:11:03.333Z,32.29
2019-05-15T09:12:03.331Z,32.10
2019-05-15T09:13:03.321Z,32.32
2019-05-15T09:14:03.317Z,32.22
2019-05-15T09:15:03.275Z,36.47
2019-05-15T09:16:03.274Z,32.32
2019-05-15T09:17:03.258Z,34.43
2019-05-15T09:18:14.849Z,32.31
2019-05-15T09:19:04.307Z,32.19
2019-05-15T09:20:03.223Z,31.18
2019-05-15T09:21:03.254Z,36.65
2019-05-15T09:22:03.211Z,31.58
2019-05-15T09:23:03.192Z,38.77
2019-05-15T09:24:03.198Z,33.69
2019-05-15T09:25:03.173Z,31.16
2019-05-15T09:26:03.155Z,31.85
2019-05-15T09:27:03.165Z,33.67
2019-05-15T09:28:03.149Z,31.45
2019-05-15T09:29:03.142Z,31.43
2019-05-15T09:30:03.114Z,28.92
2019-05-15T09:31:03.106Z,33.58
2019-05-15T09:32:03.101Z,31.34
2019-05-15T09:33:03.092Z,31.64
2019-05-15T09:34:03.093Z,31.74
2019-05-15T09:35:03.067Z,30.93
2019-05-15T09:36:03.056Z,30.34
2019-05-15T09:37:03.057Z,33.17
2019-05-15T09:38:03.036Z,30.02
2019-05-15T09:39:03.050Z,29.02
2019-05-15T09:40:03.018Z,33.47
2019-05-15T09:41:03.001Z,35.78
2019-05-15T09:42:02.994Z,35.57
2019-05-15T09:43:02.986Z,30.22
2019-05-15T09:44:03.028Z,31.64
2019-05-15T09:45:02.989Z,30.64
2019-05-15T09:46:02.956Z,31.05
2019-05-15T09:47:02.938Z,36.99
2019-05-15T09:48:02.940Z,37.08
2019-05-15T09:49:02.922Z,32.23
2019-05-15T09:50:02.932Z,30.00
2019-05-15T09:51:02.907Z,36.88
2019-05-15T09:52:02.884Z,30.82
2019-05-15T09:53:02.899Z,30.41
2019-05-15T09:54:02.867Z,31.93
2019-05-15T09:55:02.896Z,34.25
2019-05-15T09:56:02.875Z,30.50
2019-05-15T09:57:02.842Z,32.01
2019-05-15T09:58:02.825Z,32.60
2019-05-15T09:59:02.805Z,31.99
2019-05-15T10:00:02.793Z,30.36
2019-05-15T10:01:02.856Z,35.92
2019-05-15T10:02:02.784Z,34.59
2019-05-15T10:03:02.781Z,33.48
2019-05-15T10:04:02.769Z,36.51
2019-05-15T10:05:06.490Z,35.28
2019-05-15T10:06:03.747Z,35.58
2019-05-15T10:07:02.725Z,30.94
2019-05-15T10:08:02.747Z,29.03
2019-05-15T10:09:02.704Z,31.16
2019-05-15T10:10:02.695Z,30.26
2019-05-15T10:11:02.702Z,31.07
2019-05-15T10:12:02.670Z,35.50
2019-05-15T10:13:02.696Z,36.69
2019-05-15T10:14:02.652Z,30.35
2019-05-15T10:15:02.643Z,31.45
2019-05-15T10:16:02.654Z,31.55
2019-05-15T10:17:02.640Z,29.63
2019-05-15T10:18:02.606Z,27.62
2019-05-15T10:19:02.610Z,31.85
2019-05-15T10:20:02.610Z,29.92
2019-05-15T10:21:02.569Z,27.20
2019-05-15T10:22:02.583Z,29.13
2019-05-15T10:23:02.549Z,32.66
2019-05-15T10:24:02.553Z,31.24
2019-05-15T10:25:02.545Z,27.31
2019-05-15T10:26:02.532Z,31.85
2019-05-15T10:27:02.530Z,30.54
2019-05-15T10:28:02.513Z,29.43
2019-05-15T10:29:02.488Z,28.52
2019-05-15T10:30:02.478Z,29.52
2019-05-15T10:31:02.476Z,30.73
2019-05-15T10:32:02.472Z,28.61
2019-05-15T10:33:02.483Z,28.00
2019-05-15T10:34:02.448Z,30.41
2019-05-15T10:35:02.430Z,29.59
2019-05-15T10:36:02.412Z,28.38
2019-05-15T10:37:02.423Z,28.38
2019-05-15T10:38:02.397Z,31.81
2019-05-15T10:39:02.471Z,26.77
2019-05-15T10:40:02.376Z,30.30
2019-05-15T10:41:08.696Z,29.49
2019-05-15T10:42:03.373Z,29.00
2019-05-15T10:43:02.374Z,27.19
2019-05-15T10:44:02.332Z,27.49
2019-05-15T10:45:02.338Z,30.62
2019-05-15T10:46:02.318Z,32.21
2019-05-15T10:47:02.293Z,31.20
2019-05-15T10:48:02.320Z,26.47
2019-05-15T10:49:02.278Z,33.64
2019-05-15T10:50:02.287Z,33.62
2019-05-15T10:51:07.165Z,30.40
2019-05-15T10:52:03.467Z,29.79
2019-05-15T10:53:03.139Z,33.82
2019-05-15T10:54:02.225Z,31.30
2019-05-15T10:55:02.214Z,32.90
2019-05-15T10:56:02.738Z,29.88
2019-05-15T10:57:05.154Z,27.67
2019-05-15T10:58:02.210Z,28.37
2019-05-15T10:59:02.164Z,26.76
2019-05-15T11:00:02.170Z,28.45
2019-05-15T11:01:03.289Z,29.38
2019-05-15T11:02:02.162Z,32.29
2019-05-15T11:03:02.418Z,33.00
2019-05-15T11:04:02.126Z,29.47
2019-05-15T11:05:02.104Z,30.79
2019-05-15T11:06:02.099Z,31.79
2019-05-15T11:07:02.095Z,32.79
2019-05-15T11:08:02.080Z,29.68
2019-05-15T11:09:02.077Z,28.17
2019-05-15T11:10:02.051Z,31.49
2019-05-15T11:11:02.047Z,31.60
2019-05-15T11:12:02.043Z,31.10
2019-05-15T11:13:02.026Z,29.07
2019-05-15T11:14:02.265Z,29.90
2019-05-15T11:15:02.046Z,32.70
2019-05-15T11:16:01.986Z,30.79
2019-05-15T11:17:01.974Z,31.69
2019-05-15T11:18:01.967Z,27.68
2019-05-15T11:19:01.987Z,29.69
2019-05-15T11:20:01.960Z,31.30
2019-05-15T11:21:01.934Z,31.71
2019-05-15T11:22:01.970Z,30.40
2019-05-15T11:23:01.934Z,29.90
2019-05-15T11:24:01.943Z,37.73
2019-05-15T11:25:01.891Z,36.13
2019-05-15T11:26:01.887Z,32.79
2019-05-15T11:27:01.869Z,33.20
2019-05-15T11:28:01.884Z,30.27
2019-05-15T11:29:01.850Z,30.77
2019-05-15T11:30:01.856Z,30.67
2019-05-15T11:31:01.992Z,29.68
2019-05-15T11:32:01.817Z,28.58
2019-05-15T11:33:01.845Z,29.99
2019-05-15T11:34:01.819Z,32.03
2019-05-15T11:35:04.303Z,33.35
2019-05-15T11:36:05.851Z,31.73
2019-05-15T11:37:01.780Z,31.13
2019-05-15T11:38:01.762Z,32.04
2019-05-15T11:39:01.738Z,35.77
2019-05-15T11:40:01.766Z,36.96
2019-05-15T11:41:04.572Z,34.74
2019-05-15T11:42:01.720Z,35.03
2019-05-15T11:43:01.726Z,37.12
2019-05-15T11:44:01.692Z,36.90
2019-05-15T11:45:01.696Z,34.98
2019-05-15T11:46:01.678Z,36.38
2019-05-15T11:47:01.655Z,32.85
2019-05-15T11:48:01.653Z,30.96
2019-05-15T11:49:01.634Z,33.65
2019-05-15T11:50:01.651Z,31.46
2019-05-15T11:51:01.615Z,31.46
2019-05-15T11:52:01.606Z,30.05
2019-05-15T11:53:01.594Z,30.57
2019-05-15T11:54:01.582Z,29.88
2019-05-15T11:55:01.630Z,33.72
2019-05-15T11:56:01.596Z,31.39
2019-05-15T11:57:01.585Z,36.02
2019-05-15T11:58:01.558Z,34.51
2019-05-15T11:59:01.548Z,30.38
2019-05-15T12:00:01.808Z,31.99
2019-05-15T12:01:01.507Z,31.77
2019-05-15T12:02:01.495Z,30.18
2019-05-15T12:03:01.483Z,36.62
2019-05-15T12:04:01.481Z,31.89
2019-05-15T12:05:01.507Z,34.31
2019-05-15T12:06:14.930Z,34.49
2019-05-15T12:07:02.775Z,29.86
2019-05-15T12:08:01.438Z,32.68
2019-05-15T12:09:01.425Z,30.16
2019-05-15T12:10:01.422Z,30.28
2019-05-15T12:11:01.450Z,41.13
2019-05-15T12:12:01.402Z,32.78
2019-05-15T12:13:01.378Z,34.47
2019-05-15T12:14:01.388Z,30.35
2019-05-15T12:15:01.378Z,31.16
2019-05-15T12:16:01.383Z,30.55
2019-05-15T12:17:10.682Z,33.67
2019-05-15T12:18:02.339Z,32.56
2019-05-15T12:19:09.125Z,31.76
2019-05-15T12:20:06.183Z,34.38
2019-05-15T12:21:01.319Z,32.45
2019-05-15T12:22:01.285Z,29.85
2019-05-15T12:23:01.295Z,31.16
2019-05-15T12:24:01.265Z,31.76
2019-05-15T12:25:01.652Z,29.77
2019-05-15T12:26:01.274Z,31.09
2019-05-15T12:27:13.914Z,30.77
2019-05-15T12:28:02.222Z,31.79
2019-05-15T12:29:01.214Z,32.51
2019-05-15T12:30:01.205Z,30.70
2019-05-15T12:31:01.234Z,31.71
2019-05-15T12:33:02.181Z,34.51
2019-05-15T12:34:01.161Z,34.69
2019-05-15T12:35:01.152Z,32.76
2019-05-15T12:36:01.139Z,32.06
2019-05-15T12:37:01.156Z,34.98
2019-05-15T12:38:01.128Z,33.05
2019-05-15T12:39:09.497Z,34.36
2019-05-15T13:00:01.883Z,30.32
2019-05-15T13:01:12.802Z,33.14
2019-05-15T13:02:01.868Z,30.34
2019-05-15T13:03:00.876Z,31.65
2019-05-15T13:04:00.854Z,36.58
2019-05-15T13:05:00.837Z,29.35
2019-05-15T13:06:00.824Z,30.47
2019-05-15T13:07:12.838Z,30.96
2019-05-15T13:08:01.817Z,28.96
2019-05-15T13:09:00.802Z,30.77
2019-05-15T13:10:00.776Z,35.88
2019-05-15T13:11:00.764Z,39.40
2019-05-15T13:12:00.753Z,37.57
2019-05-15T13:13:05.095Z,37.17